Time;durP1;ratioP1;P1;durP2;ratioP2;P2;SDS_P1;SDS_P2;PMS_P1;PMS_P2;Temp;Humidity;BMP_temperature;BMP_pressure;BME280_temperature;BME280_humidity;BME280_pressure;Samples;Min_cycle;Max_cycle;Signal;HPM_P1;HPM_P2
2021/12/18 00:02:23;;;;;;;;;;;21.00;51.90;;;;;;5113875;28;20015;-57
2021/12/18 00:04:50;;;;;;;;;;;21.00;52.00;;;;;;5113464;28;19973;-50
2021/12/18 00:07:17;;;;;;;;;;;21.00;51.90;;;;;;5114478;28;20354;-50
2021/12/18 00:09:46;;;;;;;;;;;21.00;52.00;;;;;;5114417;28;19924;-54
2021/12/18 00:12:13;;;;;;;;;;;21.00;52.00;;;;;;5114248;28;20023;-51
2021/12/18 00:14:39;;;;;;;;;;;21.00;52.10;;;;;;5113211;28;19982;-57
2021/12/18 00:17:10;;;;;;;;;;;21.00;52.00;;;;;;5114046;28;19923;-56
2021/12/18 00:19:37;;;;;;;;;;;21.00;52.00;;;;;;5114028;28;19931;-49
2021/12/18 00:22:05;;;;;;;;;;;21.00;52.00;;;;;;5113568;28;19924;-51
2021/12/18 00:24:32;;;;;;;;;;;21.00;52.00;;;;;;5114005;28;19924;-56
2021/12/18 00:26:59;;;;;;;;;;;21.00;52.00;;;;;;5114262;28;20326;-55
2021/12/18 00:29:26;;;;;;;;;;;21.00;52.00;;;;;;5114261;28;19928;-48
2021/12/18 00:31:53;;;;;;;;;;;21.00;52.00;;;;;;5113018;28;20337;-53
2021/12/18 00:34:20;;;;;;;;;;;21.00;52.00;;;;;;5113920;28;19928;-53
2021/12/18 00:36:47;;;;;;;;;;;21.00;52.00;;;;;;5113857;28;19963;-58
2021/12/18 00:39:15;;;;;;;;;;;21.00;52.00;;;;;;5113829;28;20383;-56
2021/12/18 00:44:13;;;;;;;;;;;21.00;52.00;;;;;;5113785;28;19924;-55
2021/12/18 00:46:43;;;;;;;;;;;21.00;52.10;;;;;;5112465;28;19927;-53
2021/12/18 00:49:11;;;;;;;;;;;21.00;52.10;;;;;;5113719;28;19973;-53
2021/12/18 00:51:38;;;;;;;;;;;21.00;52.10;;;;;;5114055;28;20336;-53
2021/12/18 00:54:05;;;;;;;;;;;21.00;52.10;;;;;;5113551;28;19924;-47
2021/12/18 00:56:32;;;;;;;;;;;21.00;52.10;;;;;;5113699;28;19928;-51
2021/12/18 00:58:59;;;;;;;;;;;21.00;52.10;;;;;;5113982;28;19931;-55
2021/12/18 01:01:27;;;;;;;;;;;21.00;52.10;;;;;;5112294;28;19973;-55
2021/12/18 01:03:55;;;;;;;;;;;21.00;52.10;;;;;;5113942;28;20053;-49
2021/12/18 01:06:23;;;;;;;;;;;21.00;52.10;;;;;;5113862;28;20440;-56
2021/12/18 01:08:53;;;;;;;;;;;20.90;52.00;;;;;;5113881;28;19931;-53
2021/12/18 01:16:27;;;;;;;;;;;20.90;52.10;;;;;;5116167;28;20015;-52
2021/12/18 01:24:24;;;;;;;;;;;21.00;52.10;;;;;;5117220;28;19924;-49
2021/12/18 01:26:51;;;;;;;;;;;20.90;52.00;;;;;;5117297;28;19959;-53
2021/12/18 01:29:18;;;;;;;;;;;20.90;52.00;;;;;;5116973;28;20375;-49
2021/12/18 01:31:45;;;;;;;;;;;21.00;52.10;;;;;;5097828;28;19966;-48
2021/12/18 01:34:12;;;;;;;;;;;21.00;52.10;;;;;;5117176;28;19949;-45
2021/12/18 01:36:39;;;;;;;;;;;20.90;52.10;;;;;;5116787;28;19973;-53
2021/12/18 01:39:06;;;;;;;;;;;20.90;52.00;;;;;;5117077;28;19947;-53
2021/12/18 01:41:43;;;;;;;;;;;20.90;52.10;;;;;;5116863;28;19924;-57
2021/12/18 01:52:32;;;;;;;;;;;20.90;52.00;;;;;;5053752;28;20296;-56
2021/12/18 01:55:00;;;;;;;;;;;21.00;52.10;;;;;;5054047;28;20010;-50
2021/12/18 01:57:28;;;;;;;;;;;20.90;52.10;;;;;;5053798;28;19924;-52
2021/12/18 01:59:55;;;;;;;;;;;20.90;52.00;;;;;;5053724;28;19928;-50
2021/12/18 02:02:22;;;;;;;;;;;20.90;52.00;;;;;;5052486;28;19928;-52
2021/12/18 02:04:49;;;;;;;;;;;20.90;52.00;;;;;;5053650;28;20285;-53
2021/12/18 02:07:16;;;;;;;;;;;20.90;52.10;;;;;;5053717;28;19971;-49
2021/12/18 02:10:06;;;;;;;;;;;20.90;52.10;;;;;;5053535;28;19932;-48
2021/12/18 02:12:49;;;;;;;;;;;21.00;52.10;;;;;;5053473;28;19924;-55
2021/12/18 02:20:49;;;;;;;;;;;20.90;52.10;;;;;;5053505;28;20418;-55
2021/12/18 02:23:17;;;;;;;;;;;20.90;52.00;;;;;;5052943;28;19995;-50
2021/12/18 02:25:45;;;;;;;;;;;20.90;52.00;;;;;;5058978;28;19932;-49
2021/12/18 02:28:22;;;;;;;;;;;20.90;52.00;;;;;;5115754;28;19924;-47
2021/12/18 02:30:50;;;;;;;;;;;20.90;52.10;;;;;;5116143;28;19970;-50
2021/12/18 02:33:18;;;;;;;;;;;21.00;52.10;;;;;;5114781;28;19968;-53
2021/12/18 02:35:50;;;;;;;;;;;20.90;52.70;;;;;;5097653;28;20375;-51
2021/12/18 02:38:24;;;;;;;;;;;20.90;52.10;;;;;;5116020;28;20351;-53
2021/12/18 02:41:01;;;;;;;;;;;20.90;52.10;;;;;;5115729;28;19963;-56
2021/12/18 02:43:30;;;;;;;;;;;20.90;52.70;;;;;;5115889;28;20325;-50
2021/12/18 02:45:59;;;;;;;;;;;20.90;52.10;;;;;;5097507;28;19928;-50
2021/12/18 02:48:28;;;;;;;;;;;20.90;52.10;;;;;;5114197;27;19977;-51
2021/12/18 02:50:58;;;;;;;;;;;20.90;52.10;;;;;;5115335;28;20383;-53
2021/12/18 02:53:26;;;;;;;;;;;20.90;52.10;;;;;;5115121;28;20383;-56
2021/12/18 02:55:57;;;;;;;;;;;20.90;52.10;;;;;;5097574;28;19937;-51
2021/12/18 02:58:24;;;;;;;;;;;20.90;52.10;;;;;;5115511;28;19959;-50
2021/12/18 03:00:52;;;;;;;;;;;20.90;52.10;;;;;;5115512;28;19924;-57
2021/12/18 03:03:23;;;;;;;;;;;20.90;52.10;;;;;;5114251;27;19927;-52
2021/12/18 03:08:45;;;;;;;;;;;20.90;52.10;;;;;;5115418;28;20276;-52
2021/12/18 03:23:07;;;;;;;;;;;20.90;52.10;;;;;;5114523;28;20043;-52
2021/12/18 03:25:03;;;;;;;;;;;20.90;52.10;;;;;;5100725;28;19977;-57
2021/12/18 03:27:31;;;;;;;;;;;20.80;52.00;;;;;;5114725;28;19968;-58
2021/12/18 03:29:57;;;;;;;;;;;20.90;52.10;;;;;;5114990;28;20290;-57
2021/12/18 03:32:24;;;;;;;;;;;20.90;52.10;;;;;;5113276;27;19924;-56
2021/12/18 03:34:52;;;;;;;;;;;20.80;52.00;;;;;;5114628;28;19923;-54
2021/12/18 03:37:20;;;;;;;;;;;20.90;52.10;;;;;;5114664;28;19928;-55
2021/12/18 03:39:47;;;;;;;;;;;20.90;52.10;;;;;;5114496;28;19924;-49
2021/12/18 03:42:14;;;;;;;;;;;20.80;52.00;;;;;;5114594;28;20337;-56
2021/12/18 03:44:41;;;;;;;;;;;20.90;52.10;;;;;;5114772;28;20364;-53
2021/12/18 03:47:08;;;;;;;;;;;20.80;52.00;;;;;;5095464;28;20019;-54
2021/12/18 03:49:35;;;;;;;;;;;20.80;52.00;;;;;;5114729;28;19923;-49
2021/12/18 03:52:02;;;;;;;;;;;20.80;52.10;;;;;;5115064;28;19974;-54
2021/12/18 03:54:29;;;;;;;;;;;20.80;52.00;;;;;;5114581;28;19924;-48
2021/12/18 03:56:56;;;;;;;;;;;20.80;52.10;;;;;;5096519;28;19959;-49
2021/12/18 03:59:23;;;;;;;;;;;20.80;52.10;;;;;;5114554;28;19927;-56
2021/12/18 04:01:50;;;;;;;;;;;20.80;52.10;;;;;;5114091;28;20105;-53
2021/12/18 04:04:17;;;;;;;;;;;20.80;52.10;;;;;;5113291;28;19924;-49
2021/12/18 04:06:45;;;;;;;;;;;20.80;52.10;;;;;;5114168;28;19967;-51
2021/12/18 04:09:12;;;;;;;;;;;20.80;52.10;;;;;;5114424;28;19966;-58
2021/12/18 04:11:40;;;;;;;;;;;20.80;52.10;;;;;;5113983;28;19924;-55
2021/12/18 04:14:08;;;;;;;;;;;20.80;52.00;;;;;;5114104;28;20451;-56
2021/12/18 04:16:35;;;;;;;;;;;20.80;52.00;;;;;;5114062;28;20436;-56
2021/12/18 04:19:02;;;;;;;;;;;20.80;52.00;;;;;;5113098;28;19924;-48
2021/12/18 04:21:30;;;;;;;;;;;20.80;52.00;;;;;;5114249;28;20357;-56
2021/12/18 04:23:57;;;;;;;;;;;20.80;52.10;;;;;;5113714;28;19923;-53
2021/12/18 04:26:24;;;;;;;;;;;20.80;52.00;;;;;;5096034;28;19923;-50
2021/12/18 04:28:51;;;;;;;;;;;20.80;52.00;;;;;;5113979;28;19972;-52
2021/12/18 04:31:18;;;;;;;;;;;20.80;52.00;;;;;;5113911;28;20014;-53
2021/12/18 04:33:45;;;;;;;;;;;20.80;52.10;;;;;;5112953;28;20456;-52
2021/12/18 04:36:12;;;;;;;;;;;20.80;52.10;;;;;;5114202;28;19949;-56
2021/12/18 04:38:39;;;;;;;;;;;20.80;52.70;;;;;;5114190;28;20360;-55
2021/12/18 04:41:06;;;;;;;;;;;20.90;52.10;;;;;;5096059;28;19971;-54
2021/12/18 04:43:33;;;;;;;;;;;20.80;52.00;;;;;;5114036;28;19924;-56
2021/12/18 04:46:00;;;;;;;;;;;20.80;52.10;;;;;;5095759;28;19975;-51
2021/12/18 04:48:27;;;;;;;;;;;20.80;52.00;;;;;;5113388;28;19951;-56
2021/12/18 04:50:54;;;;;;;;;;;20.80;52.10;;;;;;5116730;28;20383;-54
2021/12/18 04:53:21;;;;;;;;;;;20.80;52.10;;;;;;5117765;28;19923;-52
2021/12/18 04:55:48;;;;;;;;;;;20.80;52.10;;;;;;5117637;28;20447;-48
2021/12/18 04:58:15;;;;;;;;;;;20.80;52.10;;;;;;5117882;28;19947;-54
2021/12/18 05:00:47;;;;;;;;;;;20.80;52.10;;;;;;5117523;28;19924;-55
2021/12/18 05:03:16;;;;;;;;;;;20.80;52.10;;;;;;5116490;27;20421;-55
2021/12/18 05:05:43;;;;;;;;;;;20.80;52.10;;;;;;5117751;28;19928;-53
2021/12/18 05:08:10;;;;;;;;;;;20.80;52.10;;;;;;5117377;28;19927;-53
2021/12/18 05:10:37;;;;;;;;;;;20.80;52.10;;;;;;5117557;28;19928;-56
2021/12/18 05:13:04;;;;;;;;;;;20.80;52.10;;;;;;5117267;28;19923;-58
2021/12/18 05:15:32;;;;;;;;;;;20.80;52.10;;;;;;5117260;28;19928;-57
2021/12/18 05:17:59;;;;;;;;;;;20.80;52.10;;;;;;5116230;28;20328;-54
2021/12/18 05:20:26;;;;;;;;;;;20.80;52.10;;;;;;5117519;28;19976;-56
2021/12/18 05:22:53;;;;;;;;;;;20.80;52.70;;;;;;5116862;28;20286;-57
2021/12/18 05:25:20;;;;;;;;;;;20.80;52.10;;;;;;5117115;28;19982;-51
2021/12/18 05:27:47;;;;;;;;;;;20.80;52.10;;;;;;5117359;28;20299;-54
2021/12/18 05:30:14;;;;;;;;;;;20.80;52.10;;;;;;5117311;28;19924;-53
2021/12/18 05:32:41;;;;;;;;;;;20.80;52.10;;;;;;5117243;28;20026;-58
2021/12/18 05:35:08;;;;;;;;;;;20.80;52.10;;;;;;5115697;27;20394;-53
2021/12/18 05:37:48;;;;;;;;;;;20.80;52.10;;;;;;5117119;28;19924;-53
2021/12/18 05:40:16;;;;;;;;;;;20.80;52.10;;;;;;5116719;28;19923;-56
2021/12/18 05:42:46;;;;;;;;;;;20.80;52.10;;;;;;5117036;28;20379;-56
2021/12/18 05:45:13;;;;;;;;;;;20.80;52.10;;;;;;5116706;28;20465;-57
2021/12/18 05:47:40;;;;;;;;;;;20.80;52.10;;;;;;5116615;28;19986;-54
2021/12/18 05:50:07;;;;;;;;;;;20.80;52.10;;;;;;5115580;27;19924;-51
2021/12/18 05:52:34;;;;;;;;;;;20.80;52.10;;;;;;5116361;28;19963;-56
2021/12/18 05:55:02;;;;;;;;;;;20.80;52.10;;;;;;5116793;28;19924;-56
2021/12/18 05:57:29;;;;;;;;;;;20.80;52.10;;;;;;5116738;28;20014;-55
2021/12/18 05:59:56;;;;;;;;;;;20.80;52.00;;;;;;5116716;28;19924;-46
2021/12/18 06:02:23;;;;;;;;;;;20.80;52.10;;;;;;5116243;28;19924;-54
2021/12/18 06:04:50;;;;;;;;;;;20.80;52.10;;;;;;5115077;27;20509;-48
2021/12/18 06:07:29;;;;;;;;;;;20.80;52.10;;;;;;5116571;28;19946;-48
2021/12/18 06:09:57;;;;;;;;;;;20.80;52.10;;;;;;5116914;28;19950;-48
2021/12/18 06:12:24;;;;;;;;;;;20.80;52.10;;;;;;5116488;28;20027;-52
2021/12/18 06:14:51;;;;;;;;;;;20.80;52.10;;;;;;5116409;28;19923;-58
2021/12/18 06:17:18;;;;;;;;;;;20.80;52.10;;;;;;5116178;28;20366;-50
2021/12/18 06:19:45;;;;;;;;;;;20.80;52.10;;;;;;5115107;28;19969;-53
2021/12/18 06:22:12;;;;;;;;;;;20.80;52.10;;;;;;5115794;28;19923;-50
2021/12/18 06:24:40;;;;;;;;;;;20.80;52.10;;;;;;5116212;28;19924;-52
2021/12/18 06:27:07;;;;;;;;;;;20.80;52.10;;;;;;5115879;28;19931;-55
2021/12/18 06:29:34;;;;;;;;;;;20.70;52.00;;;;;;5116145;28;20006;-49
2021/12/18 06:32:01;;;;;;;;;;;20.80;52.10;;;;;;5115736;28;19928;-50
2021/12/18 06:34:28;;;;;;;;;;;20.80;52.10;;;;;;5114674;27;19923;-56
2021/12/18 06:36:55;;;;;;;;;;;20.70;52.00;;;;;;5115662;28;19967;-51
2021/12/18 06:39:22;;;;;;;;;;;20.80;52.10;;;;;;5115954;28;19962;-57
2021/12/18 06:41:49;;;;;;;;;;;20.70;52.00;;;;;;5115559;28;19974;-52
2021/12/18 06:44:16;;;;;;;;;;;20.80;52.10;;;;;;5115449;28;19924;-47
2021/12/18 06:46:43;;;;;;;;;;;20.70;52.00;;;;;;5115796;28;19993;-54
2021/12/18 06:49:10;;;;;;;;;;;20.70;52.00;;;;;;5114612;28;19927;-49
2021/12/18 06:51:38;;;;;;;;;;;20.70;52.00;;;;;;5115347;28;19924;-49
2021/12/18 06:54:04;;;;;;;;;;;20.80;52.10;;;;;;5115493;28;19970;-56
2021/12/18 06:56:32;;;;;;;;;;;20.70;52.00;;;;;;5115570;28;19923;-58
2021/12/18 06:58:58;;;;;;;;;;;20.70;52.00;;;;;;5116091;28;19923;-54
2021/12/18 07:01:25;;;;;;;;;;;20.70;52.00;;;;;;5115491;28;19953;-57
2021/12/18 07:03:52;;;;;;;;;;;20.80;52.10;;;;;;5114593;28;20330;-53
2021/12/18 07:06:20;;;;;;;;;;;20.80;52.10;;;;;;5115201;28;19934;-54
2021/12/18 07:08:47;;;;;;;;;;;20.80;52.10;;;;;;5115043;28;19931;-48
2021/12/18 07:11:14;;;;;;;;;;;20.80;52.00;;;;;;5114921;28;19923;-51
2021/12/18 07:13:41;;;;;;;;;;;20.80;52.00;;;;;;5114805;28;19977;-56
2021/12/18 07:16:08;;;;;;;;;;;20.80;52.10;;;;;;5114759;28;19959;-49
2021/12/18 07:18:35;;;;;;;;;;;20.80;52.00;;;;;;5114705;28;19924;-56
2021/12/18 07:21:02;;;;;;;;;;;20.80;52.00;;;;;;5113882;28;19958;-46
2021/12/18 07:23:29;;;;;;;;;;;20.80;52.00;;;;;;5114419;28;19930;-54
2021/12/18 07:25:56;;;;;;;;;;;20.70;51.90;;;;;;5114810;28;19966;-49
2021/12/18 07:28:23;;;;;;;;;;;20.80;52.00;;;;;;5114723;28;19963;-57
2021/12/18 07:30:50;;;;;;;;;;;20.80;52.00;;;;;;5115461;28;20279;-48
2021/12/18 07:33:17;;;;;;;;;;;20.70;51.90;;;;;;5114935;28;20006;-55
2021/12/18 07:35:44;;;;;;;;;;;20.80;52.00;;;;;;5113618;27;20327;-55
2021/12/18 07:38:11;;;;;;;;;;;20.80;52.00;;;;;;5114528;28;19924;-49
2021/12/18 07:40:38;;;;;;;;;;;20.80;52.00;;;;;;5114387;28;20022;-52
2021/12/18 07:43:05;;;;;;;;;;;20.80;52.00;;;;;;5114731;28;20343;-55
2021/12/18 07:45:34;;;;;;;;;;;20.80;52.00;;;;;;5114769;28;19970;-49
2021/12/18 07:48:01;;;;;;;;;;;20.80;52.00;;;;;;5114368;28;20395;-53
2021/12/18 07:50:28;;;;;;;;;;;20.80;52.00;;;;;;5113122;28;19924;-47
2021/12/18 07:52:55;;;;;;;;;;;20.80;51.90;;;;;;5114461;28;20014;-55
2021/12/18 07:55:22;;;;;;;;;;;20.80;51.90;;;;;;5114268;28;19953;-47
2021/12/18 07:57:51;;;;;;;;;;;20.80;51.90;;;;;;5114215;28;19974;-51
2021/12/18 08:00:18;;;;;;;;;;;20.80;51.90;;;;;;5114549;28;19924;-57
2021/12/18 08:02:45;;;;;;;;;;;20.80;51.90;;;;;;5114156;28;19928;-51
2021/12/18 08:05:14;;;;;;;;;;;20.80;51.90;;;;;;5113288;28;19924;-52
2021/12/18 08:07:41;;;;;;;;;;;20.80;51.90;;;;;;5114109;28;19928;-54
2021/12/18 08:10:08;;;;;;;;;;;20.80;51.90;;;;;;5114306;28;20295;-54
2021/12/18 08:12:35;;;;;;;;;;;20.80;51.80;;;;;;5114380;28;19955;-55
2021/12/18 08:15:03;;;;;;;;;;;20.80;51.80;;;;;;5114402;28;20026;-53
2021/12/18 08:17:30;;;;;;;;;;;20.80;51.80;;;;;;5114355;28;19927;-56
2021/12/18 08:19:57;;;;;;;;;;;20.80;51.80;;;;;;5113054;28;20356;-50
2021/12/18 08:22:24;;;;;;;;;;;20.90;51.80;;;;;;5113545;28;20014;-56
2021/12/18 08:24:51;;;;;;;;;;;20.80;51.70;;;;;;5115638;28;20361;-57
2021/12/18 08:27:18;;;;;;;;;;;20.80;51.70;;;;;;5118215;28;19977;-54
2021/12/18 08:29:45;;;;;;;;;;;20.80;51.70;;;;;;5118094;28;20440;-56
2021/12/18 08:32:12;;;;;;;;;;;20.80;51.70;;;;;;5118338;28;19924;-53
2021/12/18 08:34:39;;;;;;;;;;;20.80;51.60;;;;;;5118230;28;19923;-51
2021/12/18 08:37:06;;;;;;;;;;;20.80;51.60;;;;;;5098719;28;19951;-55
2021/12/18 08:39:33;;;;;;;;;;;20.90;51.70;;;;;;5117683;28;19923;-53
2021/12/18 08:42:04;;;;;;;;;;;20.90;51.70;;;;;;5117903;28;19982;-57
2021/12/18 08:44:31;;;;;;;;;;;20.90;51.60;;;;;;5118087;28;20026;-57
2021/12/18 08:46:58;;;;;;;;;;;20.90;51.50;;;;;;5118148;28;19924;-47
2021/12/18 08:49:25;;;;;;;;;;;20.90;51.60;;;;;;5118097;28;19928;-57
2021/12/18 08:51:53;;;;;;;;;;;20.90;51.50;;;;;;5117000;28;20332;-52
2021/12/18 08:54:20;;;;;;;;;;;20.90;51.40;;;;;;5117766;28;19974;-54
2021/12/18 08:57:07;;;;;;;;;;;20.90;51.40;;;;;;5117966;28;19924;-55
2021/12/18 08:59:34;;;;;;;;;;;20.90;51.40;;;;;;5117582;28;20398;-58
2021/12/18 09:02:01;;;;;;;;;;;20.90;51.30;;;;;;5117559;28;19927;-54
2021/12/18 09:04:28;;;;;;;;;;;21.00;51.40;;;;;;5117763;28;19923;-50
2021/12/18 09:06:55;;;;;;;;;;;21.00;51.30;;;;;;5116371;27;19923;-51
2021/12/18 09:09:22;;;;;;;;;;;21.00;51.30;;;;;;5117668;28;19924;-57
2021/12/18 09:11:49;;;;;;;;;;;21.00;51.20;;;;;;5117293;28;20390;-56
2021/12/18 09:14:17;;;;;;;;;;;21.00;51.20;;;;;;5117347;28;19971;-51
2021/12/18 09:16:44;;;;;;;;;;;21.00;51.20;;;;;;5117563;28;19923;-52
2021/12/18 09:19:11;;;;;;;;;;;21.00;51.20;;;;;;5117526;28;19966;-54
2021/12/18 09:21:38;;;;;;;;;;;21.00;51.10;;;;;;5116283;27;19971;-52
2021/12/18 09:24:05;;;;;;;;;;;21.10;51.20;;;;;;5116760;28;19959;-55
2021/12/18 09:26:32;;;;;;;;;;;21.10;51.20;;;;;;5117388;28;19981;-53
2021/12/18 09:28:59;;;;;;;;;;;21.10;51.10;;;;;;5117074;28;19963;-56
2021/12/18 09:31:26;;;;;;;;;;;21.10;51.00;;;;;;5117297;28;19924;-57
2021/12/18 09:33:53;;;;;;;;;;;21.10;51.00;;;;;;5117258;28;19924;-55
2021/12/18 09:36:21;;;;;;;;;;;21.10;51.00;;;;;;5097593;28;20030;-52
2021/12/18 09:38:48;;;;;;;;;;;21.10;50.90;;;;;;5116847;28;19924;-58
2021/12/18 09:41:15;;;;;;;;;;;21.20;51.00;;;;;;5116983;28;19973;-54
2021/12/18 09:43:42;;;;;;;;;;;21.20;50.90;;;;;;5116660;28;20375;-53
2021/12/18 09:46:11;;;;;;;;;;;21.20;50.90;;;;;;5116687;28;19924;-55
2021/12/18 09:48:39;;;;;;;;;;;21.20;50.90;;;;;;5116688;28;20022;-54
2021/12/18 09:51:11;;;;;;;;;;;21.20;50.90;;;;;;5115705;27;19924;-51
2021/12/18 09:53:39;;;;;;;;;;;21.20;50.80;;;;;;5116709;28;19924;-49
2021/12/18 09:56:08;;;;;;;;;;;21.20;50.80;;;;;;5116797;28;19923;-51
2021/12/18 09:58:34;;;;;;;;;;;21.20;50.80;;;;;;5116453;28;19924;-56
2021/12/18 10:01:02;;;;;;;;;;;21.20;50.70;;;;;;5116719;28;19969;-57
2021/12/18 10:03:49;;;;;;;;;;;21.30;50.80;;;;;;5116574;28;19924;-49
2021/12/18 10:06:29;;;;;;;;;;;21.30;50.70;;;;;;5115001;28;19924;-51
2021/12/18 10:08:56;;;;;;;;;;;21.30;50.70;;;;;;5116248;28;19924;-50
2021/12/18 10:11:23;;;;;;;;;;;21.30;50.60;;;;;;5116381;28;20264;-47
2021/12/18 10:13:54;;;;;;;;;;;21.40;50.70;;;;;;5116167;28;19923;-57
2021/12/18 10:16:23;;;;;;;;;;;21.30;50.50;;;;;;5116084;28;19969;-52
2021/12/18 10:18:50;;;;;;;;;;;21.40;50.60;;;;;;5116386;28;19978;-52
2021/12/18 10:21:19;;;;;;;;;;;21.40;50.60;;;;;;5114720;27;20422;-52
2021/12/18 10:23:46;;;;;;;;;;;21.40;50.50;;;;;;5115661;28;19982;-52
2021/12/18 10:26:34;;;;;;;;;;;21.40;50.50;;;;;;5116192;28;20034;-51
2021/12/18 10:29:02;;;;;;;;;;;21.40;50.50;;;;;;5116154;28;20010;-53
2021/12/18 10:31:39;;;;;;;;;;;21.40;50.40;;;;;;5115820;28;19969;-58
2021/12/18 10:34:18;;;;;;;;;;;21.40;50.40;;;;;;5116074;28;19924;-55
2021/12/18 10:37:03;;;;;;;;;;;21.40;50.40;;;;;;5115075;28;20391;-57
2021/12/18 10:39:30;;;;;;;;;;;21.40;50.30;;;;;;5115433;28;20022;-49
2021/12/18 10:41:57;;;;;;;;;;;21.50;50.40;;;;;;5115457;28;20018;-55
2021/12/18 10:44:24;;;;;;;;;;;21.40;50.30;;;;;;5115630;28;20027;-55
2021/12/18 10:46:52;;;;;;;;;;;21.40;50.80;;;;;;5115301;28;19961;-55
2021/12/18 10:49:21;;;;;;;;;;;21.50;50.30;;;;;;5115587;28;20333;-50
2021/12/18 10:51:55;;;;;;;;;;;21.50;50.30;;;;;;5114466;28;19950;-49
2021/12/18 10:54:22;;;;;;;;;;;21.50;50.30;;;;;;5115533;28;19951;-51
2021/12/18 10:56:53;;;;;;;;;;;21.50;50.20;;;;;;5115631;28;19937;-56
2021/12/18 10:59:22;;;;;;;;;;;21.50;50.20;;;;;;5115695;28;19930;-54
2021/12/18 11:01:54;;;;;;;;;;;21.50;50.20;;;;;;5115579;28;20344;-48
2021/12/18 11:04:25;;;;;;;;;;;21.50;50.10;;;;;;5115439;28;19927;-48
2021/12/18 11:06:54;;;;;;;;;;;21.50;50.10;;;;;;5114156;27;19927;-51
2021/12/18 11:09:31;;;;;;;;;;;21.50;50.10;;;;;;5114988;28;19928;-57
2021/12/18 11:14:32;;;;;;;;;;;21.60;50.10;;;;;;5115005;28;19928;-54
2021/12/18 11:17:00;;;;;;;;;;;21.50;50.00;;;;;;5115243;28;19924;-49
2021/12/18 11:19:28;;;;;;;;;;;21.50;50.00;;;;;;5115215;28;19928;-52
2021/12/18 11:21:59;;;;;;;;;;;21.50;50.00;;;;;;5113862;28;20279;-54
2021/12/18 11:24:31;;;;;;;;;;;21.60;50.00;;;;;;5115034;28;19955;-49
2021/12/18 11:27:18;;;;;;;;;;;21.60;50.10;;;;;;5115108;28;20030;-57
2021/12/18 11:29:51;;;;;;;;;;;21.60;50.00;;;;;;5114774;28;20455;-52
2021/12/18 11:32:20;;;;;;;;;;;21.60;50.00;;;;;;5114680;28;19978;-56
2021/12/18 11:34:47;;;;;;;;;;;21.60;49.90;;;;;;5114961;28;19946;-49
2021/12/18 11:37:16;;;;;;;;;;;21.60;49.90;;;;;;5113569;28;20032;-53
2021/12/18 11:39:44;;;;;;;;;;;21.60;49.90;;;;;;5114456;28;19924;-55
2021/12/18 11:42:12;;;;;;;;;;;21.60;49.90;;;;;;5114833;28;19966;-55
2021/12/18 11:44:42;;;;;;;;;;;21.60;49.90;;;;;;5114429;28;19949;-51
2021/12/18 11:47:27;;;;;;;;;;;21.60;49.90;;;;;;5115599;28;19924;-55
2021/12/18 11:50:17;;;;;;;;;;;21.60;49.90;;;;;;5114418;28;19924;-55
2021/12/18 11:53:11;;;;;;;;;;;21.60;49.90;;;;;;5100276;28;19977;-51
2021/12/18 11:55:50;;;;;;;;;;;21.60;49.90;;;;;;5109957;28;19924;-56
2021/12/18 11:58:20;;;;;;;;;;;21.60;49.80;;;;;;5114154;28;19928;-52
2021/12/18 12:00:51;;;;;;;;;;;21.60;49.80;;;;;;5114580;28;19963;-48
2021/12/18 12:03:26;;;;;;;;;;;21.60;49.80;;;;;;5114395;28;19924;-57
2021/12/18 12:05:54;;;;;;;;;;;21.60;49.80;;;;;;5114243;28;20378;-56
2021/12/18 12:08:33;;;;;;;;;;;21.60;49.80;;;;;;5112959;28;19973;-54
2021/12/18 12:11:15;;;;;;;;;;;21.60;49.80;;;;;;5114124;28;19982;-56
2021/12/18 12:13:56;;;;;;;;;;;21.60;49.80;;;;;;5114155;28;19967;-54
2021/12/18 12:16:45;;;;;;;;;;;21.70;49.80;;;;;;5114022;28;20394;-51
2021/12/18 12:19:19;;;;;;;;;;;21.70;50.40;;;;;;5114356;28;19977;-49
2021/12/18 12:21:46;;;;;;;;;;;21.70;49.80;;;;;;5114220;28;19963;-57
2021/12/18 12:24:17;;;;;;;;;;;21.60;49.80;;;;;;5112729;28;20011;-49
2021/12/18 12:26:45;;;;;;;;;;;21.70;49.80;;;;;;5114373;28;19978;-56
2021/12/18 12:29:14;;;;;;;;;;;21.70;49.80;;;;;;5114260;28;20295;-50
2021/12/18 12:31:52;;;;;;;;;;;21.70;49.70;;;;;;5113964;28;20379;-51
2021/12/18 12:34:22;;;;;;;;;;;21.70;49.80;;;;;;5113947;28;19967;-56
2021/12/18 12:36:50;;;;;;;;;;;21.70;50.30;;;;;;5095692;28;20432;-54
2021/12/18 12:39:17;;;;;;;;;;;21.70;49.70;;;;;;5112860;28;20019;-57
2021/12/18 12:41:52;;;;;;;;;;;21.70;49.70;;;;;;5113863;28;20027;-52
2021/12/18 12:44:23;;;;;;;;;;;21.70;49.70;;;;;;5113813;28;20026;-57
2021/12/18 12:47:10;;;;;;;;;;;21.70;49.70;;;;;;5114112;28;19962;-54
2021/12/18 12:49:37;;;;;;;;;;;21.70;49.80;;;;;;5113679;28;19924;-50
2021/12/18 12:52:05;;;;;;;;;;;21.70;49.80;;;;;;5113601;28;19985;-46
2021/12/18 12:54:38;;;;;;;;;;;21.70;49.70;;;;;;5112418;28;19924;-56
2021/12/18 12:57:23;;;;;;;;;;;21.70;49.70;;;;;;5113731;28;19967;-52
2021/12/18 13:00:05;;;;;;;;;;;21.70;49.70;;;;;;5113677;28;20448;-53
2021/12/18 13:02:34;;;;;;;;;;;21.70;49.70;;;;;;5113984;28;20328;-49
2021/12/18 13:05:01;;;;;;;;;;;21.70;49.70;;;;;;5113831;28;20286;-53
2021/12/18 13:07:28;;;;;;;;;;;21.80;49.80;;;;;;5113592;28;19924;-48
2021/12/18 13:09:55;;;;;;;;;;;21.80;49.80;;;;;;5112141;28;19924;-53
2021/12/18 13:12:22;;;;;;;;;;;21.70;49.70;;;;;;5118344;28;19924;-56
2021/12/18 13:14:50;;;;;;;;;;;21.70;49.70;;;;;;5117354;28;20006;-47
2021/12/18 13:17:24;;;;;;;;;;;21.80;49.70;;;;;;5117319;28;19928;-49
2021/12/18 13:19:55;;;;;;;;;;;21.80;49.80;;;;;;5117246;28;19928;-51
2021/12/18 13:22:26;;;;;;;;;;;21.80;49.80;;;;;;5116790;28;19928;-53
2021/12/18 13:25:00;;;;;;;;;;;21.80;49.70;;;;;;5116004;27;19923;-52
2021/12/18 13:27:27;;;;;;;;;;;21.80;49.70;;;;;;5117434;28;20000;-55
2021/12/18 13:30:10;;;;;;;;;;;21.80;49.70;;;;;;5117325;28;19963;-53
2021/12/18 13:32:49;;;;;;;;;;;21.80;49.60;;;;;;5117261;28;19977;-54
2021/12/18 13:35:19;;;;;;;;;;;21.80;49.60;;;;;;5118164;28;19924;-51
2021/12/18 13:37:54;;;;;;;;;;;21.90;49.70;;;;;;5117223;28;19924;-54
2021/12/18 13:40:21;;;;;;;;;;;21.80;49.60;;;;;;5097976;28;19924;-47
2021/12/18 13:43:02;;;;;;;;;;;21.80;49.60;;;;;;5116836;28;19977;-55
2021/12/18 13:45:29;;;;;;;;;;;21.80;49.60;;;;;;5116762;28;19969;-54
2021/12/18 13:48:00;;;;;;;;;;;21.80;49.60;;;;;;5117028;28;19923;-55
2021/12/18 13:50:27;;;;;;;;;;;21.80;49.60;;;;;;5116708;28;19959;-53
2021/12/18 13:52:56;;;;;;;;;;;21.90;49.60;;;;;;5116444;28;19924;-48
2021/12/18 13:55:26;;;;;;;;;;;21.90;49.60;;;;;;5115305;27;19924;-51
2021/12/18 13:58:25;;;;;;;;;;;21.90;49.60;;;;;;5116802;28;19963;-51
2021/12/18 14:00:58;;;;;;;;;;;21.90;49.60;;;;;;5014225;28;19968;-53
2021/12/18 14:03:32;;;;;;;;;;;21.90;49.60;;;;;;5013887;28;20316;-50
2021/12/18 14:06:01;;;;;;;;;;;21.90;49.60;;;;;;5013869;28;20016;-52
2021/12/18 14:08:28;;;;;;;;;;;21.90;49.60;;;;;;5014035;28;19925;-52
2021/12/18 14:10:56;;;;;;;;;;;21.90;49.60;;;;;;5033590;28;19932;-54
2021/12/18 14:13:23;;;;;;;;;;;21.90;49.60;;;;;;5033523;28;20019;-56
2021/12/18 14:15:50;;;;;;;;;;;21.90;49.60;;;;;;5017926;28;19979;-56
2021/12/18 14:18:33;;;;;;;;;;;21.90;49.60;;;;;;5033659;28;20412;-58
2021/12/18 14:21:00;;;;;;;;;;;22.00;49.60;;;;;;5033312;28;19925;-53
2021/12/18 14:23:32;;;;;;;;;;;21.90;49.50;;;;;;5030954;28;19925;-55
2021/12/18 14:26:17;;;;;;;;;;;21.90;49.50;;;;;;5033192;28;19925;-55
2021/12/18 14:28:45;;;;;;;;;;;21.90;49.50;;;;;;5033311;28;20407;-55
2021/12/18 14:31:26;;;;;;;;;;;21.90;49.60;;;;;;5033482;28;19925;-52
2021/12/18 14:33:54;;;;;;;;;;;21.90;49.60;;;;;;5033156;28;19929;-53
2021/12/18 14:36:42;;;;;;;;;;;21.90;49.60;;;;;;5069548;28;19957;-52
2021/12/18 14:39:20;;;;;;;;;;;22.00;49.60;;;;;;5114262;28;19949;-52
2021/12/18 14:41:53;;;;;;;;;;;21.90;49.60;;;;;;5115669;28;20014;-51
2021/12/18 14:44:20;;;;;;;;;;;21.90;49.60;;;;;;5115575;28;20000;-55
2021/12/18 14:47:11;;;;;;;;;;;21.90;49.60;;;;;;5115919;28;19927;-55
2021/12/18 14:49:53;;;;;;;;;;;21.90;49.60;;;;;;5115533;28;19930;-57
2021/12/18 14:52:20;;;;;;;;;;;22.00;49.70;;;;;;5115310;28;19990;-50
2021/12/18 14:54:52;;;;;;;;;;;22.00;49.70;;;;;;5114946;28;19966;-50
2021/12/18 14:57:21;;;;;;;;;;;22.00;49.80;;;;;;5115728;28;19923;-48
2021/12/18 15:00:08;;;;;;;;;;;21.90;49.70;;;;;;5115303;28;19963;-51
2021/12/18 15:02:51;;;;;;;;;;;21.90;49.70;;;;;;5115275;28;20398;-54
2021/12/18 15:05:20;;;;;;;;;;;21.90;49.70;;;;;;5115509;28;19923;-53
2021/12/18 15:08:16;;;;;;;;;;;21.90;49.80;;;;;;5115474;28;20018;-56
2021/12/18 15:10:51;;;;;;;;;;;21.90;49.80;;;;;;5106561;27;19968;-55
2021/12/18 15:13:21;;;;;;;;;;;21.90;49.80;;;;;;5135582;27;20015;-48
2021/12/18 15:16:04;;;;;;;;;;;21.90;49.80;;;;;;5135481;27;20433;-51